createdAt,value
2023-01-19T00:01:34.976Z,91.95
2023-01-19T00:04:04.937Z,91.69
2023-01-19T00:06:34.702Z,92.00
2023-01-19T00:09:04.561Z,92.22
2023-01-19T00:11:36.869Z,91.13
2023-01-19T00:14:07.128Z,91.29
2023-01-19T00:16:37.153Z,91.62
2023-01-19T00:19:07.194Z,91.81
2023-01-19T00:21:36.914Z,92.40
2023-01-19T00:24:07.355Z,92.29
2023-01-19T00:26:40.484Z,92.09
2023-01-19T00:29:10.479Z,92.18
2023-01-19T00:31:40.967Z,91.77
2023-01-19T00:34:11.281Z,92.01
2023-01-19T00:36:40.984Z,92.00
2023-01-19T00:39:11.065Z,91.94
2023-01-19T00:41:55.842Z,92.00
2023-01-19T00:44:25.519Z,92.61
2023-01-19T00:46:55.188Z,92.18
2023-01-19T00:49:24.883Z,92.44
2023-01-19T00:51:54.545Z,92.17
2023-01-19T00:54:24.446Z,92.06
2023-01-19T00:56:57.424Z,92.10
2023-01-19T00:59:28.541Z,92.69
2023-01-19T01:01:58.430Z,92.16
2023-01-19T01:04:28.274Z,93.24
2023-01-19T01:06:57.967Z,93.36
2023-01-19T01:09:27.759Z,93.18
2023-01-19T01:11:59.995Z,93.40
2023-01-19T01:14:29.645Z,94.18
2023-01-19T01:16:59.342Z,93.40
2023-01-19T01:19:29.127Z,93.80
2023-01-19T01:21:58.813Z,94.00
2023-01-19T01:24:28.468Z,94.22
2023-01-19T01:27:00.770Z,93.82
2023-01-19T01:29:30.447Z,93.69
2023-01-19T01:32:00.136Z,93.94
2023-01-19T01:34:29.929Z,94.14
2023-01-19T01:36:59.754Z,93.64
2023-01-19T01:39:29.580Z,93.44
2023-01-19T01:42:01.853Z,93.87
2023-01-19T01:44:50.007Z,94.01
2023-01-19T01:47:29.707Z,94.09
2023-01-19T01:50:06.431Z,94.46
2023-01-19T01:52:39.573Z,94.86
2023-01-19T01:55:11.115Z,95.23
2023-01-19T01:57:49.052Z,95.70
2023-01-19T02:00:19.909Z,96.04
2023-01-19T02:02:53.607Z,96.02
2023-01-19T02:05:27.154Z,95.51
2023-01-19T02:08:13.885Z,98.72
2023-01-19T02:10:57.368Z,95.63
2023-01-19T02:13:30.752Z,95.29
2023-01-19T02:16:03.614Z,94.97
2023-01-19T02:18:34.900Z,95.56
2023-01-19T02:21:12.844Z,95.88
2023-01-19T02:23:47.719Z,96.07
2023-01-19T02:26:21.663Z,96.15
2023-01-19T02:28:57.510Z,95.60
2023-01-19T02:31:27.741Z,95.82
2023-01-19T02:33:57.810Z,96.22
2023-01-19T02:36:30.112Z,95.69
2023-01-19T02:39:04.432Z,96.23
2023-01-19T02:41:41.033Z,95.14
2023-01-19T02:44:12.754Z,95.72
2023-01-19T02:46:42.377Z,95.58
2023-01-19T02:49:12.034Z,95.18
2023-01-19T02:51:42.148Z,95.64
2023-01-19T02:54:48.170Z,94.73
2023-01-19T02:57:43.713Z,94.97
2023-01-19T03:00:24.395Z,95.20
2023-01-19T03:03:06.063Z,95.25
2023-01-19T03:05:49.372Z,94.92
2023-01-19T03:08:25.475Z,95.50
2023-01-19T03:11:04.342Z,94.82
2023-01-19T03:13:44.601Z,94.92
2023-01-19T03:16:21.865Z,94.69
2023-01-19T03:18:56.618Z,95.42
2023-01-19T03:21:30.228Z,94.45
2023-01-19T03:24:04.197Z,94.72
2023-01-19T03:26:41.693Z,94.28
2023-01-19T03:29:13.138Z,94.55
2023-01-19T03:31:46.547Z,94.59
2023-01-19T03:34:22.055Z,95.06
2023-01-19T03:36:55.658Z,95.11
2023-01-19T03:39:27.509Z,94.83
2023-01-19T03:42:03.995Z,94.40
2023-01-19T03:44:37.232Z,94.45
2023-01-19T03:47:08.850Z,94.13
2023-01-19T03:49:40.029Z,94.51
2023-01-19T03:52:09.767Z,94.81
2023-01-19T03:54:39.747Z,94.62
2023-01-19T03:57:12.962Z,94.36
2023-01-19T03:59:42.756Z,94.05
2023-01-19T04:02:12.571Z,94.00
2023-01-19T04:04:42.312Z,93.48
2023-01-19T04:07:12.868Z,93.63
2023-01-19T04:09:43.513Z,93.92
2023-01-19T04:12:15.744Z,94.04
2023-01-19T04:14:45.396Z,94.47
2023-01-19T04:17:16.182Z,94.02
2023-01-19T04:19:45.979Z,93.94
2023-01-19T04:22:15.613Z,94.20
2023-01-19T04:24:45.233Z,94.85
2023-01-19T04:27:17.769Z,94.91
2023-01-19T04:29:47.454Z,94.55
2023-01-19T04:32:17.535Z,95.10
2023-01-19T04:34:47.237Z,95.79
2023-01-19T04:37:16.899Z,95.50
2023-01-19T04:39:46.581Z,95.56
2023-01-19T04:42:19.815Z,95.14
2023-01-19T04:44:49.484Z,95.38
2023-01-19T04:47:19.158Z,94.70
2023-01-19T04:49:48.891Z,93.93
2023-01-19T04:52:18.633Z,94.36
2023-01-19T04:54:48.517Z,93.62
2023-01-19T04:57:20.754Z,93.57
2023-01-19T04:59:50.376Z,94.76
2023-01-19T05:02:20.437Z,94.46
2023-01-19T05:04:50.108Z,94.17
2023-01-19T05:07:20.233Z,94.57
2023-01-19T05:09:49.959Z,94.11
2023-01-19T05:12:22.465Z,94.07
2023-01-19T05:14:52.109Z,93.56
2023-01-19T05:17:21.800Z,93.80
2023-01-19T05:19:51.543Z,93.67
2023-01-19T05:22:21.259Z,93.41
2023-01-19T05:24:50.873Z,93.37
2023-01-19T05:27:23.275Z,93.65
2023-01-19T05:29:52.950Z,93.16
2023-01-19T05:32:22.616Z,93.17
2023-01-19T05:34:52.322Z,92.71
2023-01-19T05:37:22.137Z,93.00
2023-01-19T05:39:51.822Z,92.33
2023-01-19T05:42:24.142Z,93.02
2023-01-19T05:44:53.800Z,93.38
2023-01-19T05:47:23.480Z,93.16
2023-01-19T05:49:53.097Z,92.43
2023-01-19T05:52:22.794Z,92.23
2023-01-19T05:54:52.491Z,92.03
2023-01-19T05:57:24.821Z,91.57
2023-01-19T05:59:54.558Z,92.58
2023-01-19T06:02:28.753Z,92.79
2023-01-19T06:04:59.245Z,92.06
2023-01-19T06:07:29.266Z,91.95
2023-01-19T06:09:59.106Z,91.60
2023-01-19T06:12:32.587Z,90.57
2023-01-19T06:15:02.298Z,91.07
2023-01-19T06:17:31.977Z,91.53
2023-01-19T06:20:01.654Z,90.99
2023-01-19T06:22:31.340Z,92.02
2023-01-19T06:25:01.040Z,92.12
2023-01-19T06:27:33.307Z,92.02
2023-01-19T06:30:03.005Z,92.11
2023-01-19T06:32:32.648Z,91.90
2023-01-19T06:35:02.356Z,91.10
2023-01-19T06:37:32.098Z,91.26
2023-01-19T06:40:01.785Z,91.88
2023-01-19T06:42:34.473Z,92.10
2023-01-19T06:45:04.162Z,92.30
2023-01-19T06:47:34.483Z,91.86
2023-01-19T06:50:04.574Z,92.29
2023-01-19T06:52:34.833Z,91.80
2023-01-19T06:55:04.489Z,91.60
2023-01-19T06:57:36.930Z,91.65
2023-01-19T07:00:08.968Z,91.96
2023-01-19T07:02:38.905Z,92.08
2023-01-19T07:05:09.684Z,91.65
2023-01-19T07:07:39.787Z,92.23
2023-01-19T07:10:11.827Z,92.81
2023-01-19T07:12:45.120Z,91.47
2023-01-19T07:15:14.992Z,92.01
2023-01-19T07:17:44.866Z,91.91
2023-01-19T07:20:17.521Z,92.24
2023-01-19T07:22:47.388Z,93.66
2023-01-19T07:25:18.010Z,93.98
2023-01-19T07:27:50.369Z,94.45
2023-01-19T07:30:20.334Z,95.43
2023-01-19T07:32:50.209Z,94.47
2023-01-19T07:35:22.183Z,94.66
2023-01-19T07:37:51.959Z,95.31
2023-01-19T07:40:23.928Z,95.56
2023-01-19T07:42:56.375Z,95.84
2023-01-19T07:45:28.046Z,96.89
2023-01-19T07:47:57.763Z,97.93
2023-01-19T07:50:29.330Z,99.01
2023-01-19T07:52:59.796Z,100.00
2023-01-19T07:55:29.622Z,100.00
2023-01-19T07:58:03.994Z,100.00
2023-01-19T08:00:33.722Z,100.00
2023-01-19T08:03:04.379Z,100.00
2023-01-19T08:05:35.631Z,100.00
2023-01-19T08:08:05.630Z,98.64
2023-01-19T08:10:35.561Z,94.34
2023-01-19T08:13:08.328Z,93.41
2023-01-19T08:15:38.134Z,90.64
2023-01-19T08:18:09.831Z,91.26
2023-01-19T08:20:39.903Z,92.90
2023-01-19T08:23:09.633Z,93.59
2023-01-19T08:25:42.264Z,91.08
2023-01-19T08:28:16.395Z,92.36
2023-01-19T08:30:47.453Z,92.46
2023-01-19T08:33:17.678Z,91.86
2023-01-19T08:35:51.056Z,90.52
2023-01-19T08:38:21.145Z,91.67
2023-01-19T08:40:51.667Z,89.24
2023-01-19T08:43:24.010Z,88.62
2023-01-19T08:45:56.500Z,90.46
2023-01-19T08:48:26.865Z,91.89
2023-01-19T08:50:56.622Z,91.40
2023-01-19T08:53:26.959Z,89.26
2023-01-19T08:56:00.073Z,90.53
2023-01-19T08:58:32.439Z,89.51
2023-01-19T09:01:04.053Z,88.21
2023-01-19T09:03:34.066Z,86.55
2023-01-19T09:06:03.833Z,87.86
2023-01-19T09:08:33.568Z,87.29
2023-01-19T09:11:03.344Z,85.92
2023-01-19T09:13:35.608Z,85.50
2023-01-19T09:16:07.810Z,86.30
2023-01-19T09:18:38.521Z,86.49
2023-01-19T09:21:08.564Z,90.77
2023-01-19T09:23:38.265Z,97.86
2023-01-19T09:26:09.003Z,95.36
2023-01-19T09:28:41.309Z,96.66
2023-01-19T09:31:11.604Z,96.70
2023-01-19T09:33:41.337Z,97.97
2023-01-19T09:36:11.212Z,94.96
2023-01-19T09:38:41.132Z,95.83
2023-01-19T09:41:19.746Z,97.36
2023-01-19T09:43:56.817Z,98.02
2023-01-19T09:46:32.801Z,99.86
2023-01-19T09:49:06.760Z,100.00
2023-01-19T09:51:39.174Z,100.00
2023-01-19T09:54:15.820Z,100.00
2023-01-19T09:56:46.451Z,100.00
2023-01-19T09:59:28.027Z,100.00
2023-01-19T10:02:09.629Z,100.00
2023-01-19T10:04:42.684Z,100.00
2023-01-19T10:07:18.773Z,100.00
2023-01-19T10:10:11.165Z,100.00
2023-01-19T10:12:51.143Z,100.00
2023-01-19T10:15:33.239Z,100.00
2023-01-19T10:18:20.249Z,100.00
2023-01-19T10:20:53.679Z,100.00
2023-01-19T10:23:39.799Z,100.00
2023-01-19T10:26:14.888Z,100.00
2023-01-19T10:28:46.063Z,100.00
2023-01-19T10:31:21.395Z,100.00
2023-01-19T10:33:52.361Z,100.00
2023-01-19T10:36:24.994Z,100.00
2023-01-19T10:38:54.912Z,100.00
2023-01-19T10:41:29.755Z,100.00
2023-01-19T10:44:04.393Z,100.00
2023-01-19T10:46:44.669Z,100.00
2023-01-19T10:49:28.139Z,100.00
2023-01-19T10:51:59.179Z,100.00
2023-01-19T10:54:30.519Z,100.00
2023-01-19T10:57:02.843Z,100.00
2023-01-19T10:59:35.085Z,100.00
2023-01-19T11:02:21.561Z,100.00
2023-01-19T11:04:53.328Z,100.00
2023-01-19T11:07:24.794Z,100.00
2023-01-19T11:10:15.559Z,100.00
2023-01-19T11:12:46.733Z,100.00
2023-01-19T11:15:19.113Z,100.00
2023-01-19T11:17:53.671Z,100.00
2023-01-19T11:20:26.913Z,100.00
2023-01-19T11:23:22.450Z,100.00
2023-01-19T11:25:54.361Z,100.00
2023-01-19T11:28:30.067Z,100.00
2023-01-19T11:31:01.977Z,100.00
2023-01-19T11:33:40.180Z,100.00
2023-01-19T11:36:17.803Z,100.00
2023-01-19T11:38:50.573Z,100.00
2023-01-19T11:41:22.760Z,100.00
2023-01-19T11:43:56.372Z,100.00
2023-01-19T11:46:29.723Z,100.00
2023-01-19T11:49:05.619Z,100.00
2023-01-19T11:51:41.786Z,100.00
2023-01-19T11:54:23.760Z,100.00
2023-01-19T11:56:57.136Z,100.00
2023-01-19T11:59:27.045Z,100.00
2023-01-19T12:02:00.263Z,100.00
2023-01-19T12:04:36.049Z,100.00
2023-01-19T12:07:10.694Z,100.00
2023-01-19T12:09:45.626Z,100.00
2023-01-19T12:12:18.560Z,100.00
2023-01-19T12:14:57.436Z,100.00
2023-01-19T12:17:30.272Z,100.00
2023-01-19T12:20:15.949Z,100.00
2023-01-19T12:22:50.858Z,100.00
2023-01-19T12:25:24.929Z,100.00
2023-01-19T12:27:56.157Z,100.00
2023-01-19T12:30:28.499Z,100.00
2023-01-19T12:33:29.076Z,100.00
2023-01-19T12:36:04.060Z,100.00
2023-01-19T12:38:47.212Z,100.00
2023-01-19T12:41:22.677Z,100.00
2023-01-19T12:44:07.842Z,100.00
2023-01-19T12:46:37.988Z,100.00
2023-01-19T12:49:13.561Z,100.00
2023-01-19T12:51:46.616Z,100.00
2023-01-19T12:54:27.982Z,100.00
2023-01-19T12:57:03.494Z,100.00
2023-01-19T12:59:40.100Z,100.00
2023-01-19T13:02:43.917Z,100.00
2023-01-19T13:05:47.572Z,100.00
2023-01-19T13:08:24.886Z,100.00
2023-01-19T13:11:26.260Z,100.00
2023-01-19T13:14:32.221Z,100.00
2023-01-19T13:17:20.094Z,100.00
2023-01-19T13:20:02.544Z,100.00
2023-01-19T13:23:05.248Z,100.00
2023-01-19T13:25:38.353Z,100.00
2023-01-19T13:28:12.728Z,100.00
2023-01-19T13:30:55.003Z,100.00
2023-01-19T13:33:27.078Z,100.00
2023-01-19T13:35:59.471Z,100.00
2023-01-19T13:38:32.928Z,100.00
2023-01-19T13:41:06.497Z,100.00
2023-01-19T13:43:40.957Z,100.00
2023-01-19T13:46:14.239Z,100.00
2023-01-19T13:48:56.710Z,100.00
2023-01-19T13:51:26.414Z,100.00
2023-01-19T13:53:57.301Z,100.00
2023-01-19T13:56:31.689Z,100.00
2023-01-19T13:59:10.283Z,100.00
2023-01-19T14:01:45.305Z,100.00
2023-01-19T14:04:32.452Z,99.48
2023-01-19T14:07:05.273Z,100.00
2023-01-19T14:09:35.128Z,100.00
2023-01-19T14:12:15.224Z,100.00
2023-01-19T14:14:46.808Z,100.00
2023-01-19T14:17:28.657Z,100.00
2023-01-19T14:20:00.981Z,100.00
2023-01-19T14:22:45.079Z,100.00
2023-01-19T14:25:29.371Z,100.00
2023-01-19T14:28:39.405Z,100.00
2023-01-19T14:31:23.689Z,100.00
2023-01-19T14:33:55.345Z,100.00
2023-01-19T14:36:33.289Z,100.00
2023-01-19T14:39:03.996Z,100.00
2023-01-19T14:41:41.723Z,100.00
2023-01-19T14:44:20.411Z,100.00
2023-01-19T14:46:51.544Z,100.00
2023-01-19T14:49:24.947Z,100.00
2023-01-19T14:51:56.084Z,100.00
2023-01-19T14:54:34.126Z,100.00
2023-01-19T14:57:03.833Z,100.00
2023-01-19T14:59:36.060Z,100.00
2023-01-19T15:02:05.802Z,100.00
2023-01-19T15:04:35.608Z,100.00
2023-01-19T15:07:05.483Z,100.00
2023-01-19T15:09:35.317Z,100.00
2023-01-19T15:12:05.189Z,100.00
2023-01-19T15:14:37.420Z,100.00
2023-01-19T15:17:07.262Z,100.00
2023-01-19T15:19:36.957Z,100.00
2023-01-19T15:22:14.853Z,100.00
2023-01-19T15:24:44.524Z,100.00
2023-01-19T15:27:14.860Z,100.00
2023-01-19T15:29:47.081Z,100.00
2023-01-19T15:32:17.731Z,100.00
2023-01-19T15:34:47.374Z,100.00
2023-01-19T15:37:17.036Z,100.00
2023-01-19T15:39:46.688Z,100.00
2023-01-19T15:42:17.366Z,100.00
2023-01-19T15:44:49.626Z,100.00
2023-01-19T15:47:19.522Z,100.00
2023-01-19T15:49:49.143Z,100.00
2023-01-19T15:52:18.980Z,100.00
2023-01-19T15:54:48.603Z,100.00
2023-01-19T15:57:18.294Z,100.00
2023-01-19T15:59:51.494Z,100.00
2023-01-19T16:02:21.392Z,100.00
2023-01-19T16:04:51.381Z,100.00
2023-01-19T16:07:21.284Z,100.00
2023-01-19T16:09:50.951Z,100.00
2023-01-19T16:12:20.609Z,100.00
2023-01-19T16:14:52.819Z,100.00
2023-01-19T16:17:22.947Z,100.00
2023-01-19T16:19:52.591Z,100.00
2023-01-19T16:22:22.225Z,100.00
2023-01-19T16:24:53.101Z,100.00
2023-01-19T16:27:22.780Z,100.00
2023-01-19T16:29:55.083Z,100.00
2023-01-19T16:32:24.790Z,100.00
2023-01-19T16:34:54.420Z,100.00
2023-01-19T16:37:24.060Z,100.00
2023-01-19T16:39:54.200Z,100.00
2023-01-19T16:42:23.945Z,100.00
2023-01-19T16:44:56.537Z,100.00
2023-01-19T16:47:26.173Z,100.00
2023-01-19T16:49:56.157Z,100.00
2023-01-19T16:52:25.994Z,100.00
2023-01-19T16:54:55.638Z,100.00
2023-01-19T16:57:25.449Z,100.00
2023-01-19T16:59:57.670Z,100.00
2023-01-19T17:02:27.369Z,100.00
2023-01-19T17:04:57.152Z,100.00
2023-01-19T17:07:26.994Z,100.00
2023-01-19T17:09:57.548Z,100.00
2023-01-19T17:12:27.532Z,100.00
2023-01-19T17:14:59.766Z,100.00
2023-01-19T17:17:44.484Z,100.00
2023-01-19T17:20:15.067Z,99.82
2023-01-19T17:22:44.729Z,99.16
2023-01-19T17:25:14.345Z,99.24
2023-01-19T17:27:43.985Z,98.86
2023-01-19T17:30:17.184Z,98.67
2023-01-19T17:32:46.850Z,98.70
2023-01-19T17:35:16.507Z,98.64
2023-01-19T17:37:46.478Z,98.49
2023-01-19T17:40:16.223Z,98.39
2023-01-19T17:42:46.137Z,98.75
2023-01-19T17:45:18.658Z,98.84
2023-01-19T17:47:50.926Z,99.20
2023-01-19T17:50:21.124Z,99.69
2023-01-19T17:52:51.062Z,99.95
2023-01-19T17:55:20.796Z,100.00
2023-01-19T17:57:50.748Z,100.00
2023-01-19T18:00:24.120Z,100.00
2023-01-19T18:02:54.389Z,100.00
2023-01-19T18:05:25.548Z,100.00
2023-01-19T18:07:55.484Z,100.00
2023-01-19T18:10:25.581Z,100.00
2023-01-19T18:12:55.245Z,100.00
2023-01-19T18:15:27.812Z,100.00
2023-01-19T18:17:57.794Z,100.00
2023-01-19T18:20:27.452Z,100.00
2023-01-19T18:22:57.134Z,100.00
2023-01-19T18:25:27.047Z,100.00
2023-01-19T18:27:56.690Z,100.00
2023-01-19T18:30:31.172Z,100.00
2023-01-19T18:33:01.140Z,100.00
2023-01-19T18:35:31.133Z,100.00
2023-01-19T18:38:01.229Z,100.00
2023-01-19T18:40:30.989Z,100.00
2023-01-19T18:43:00.678Z,100.00
2023-01-19T18:45:32.942Z,100.00
2023-01-19T18:48:03.470Z,100.00
2023-01-19T18:50:34.022Z,99.92
2023-01-19T18:53:03.997Z,100.00
2023-01-19T18:55:33.678Z,100.00
2023-01-19T18:58:04.250Z,100.00
2023-01-19T19:00:36.440Z,99.88
2023-01-19T19:03:10.303Z,99.56
2023-01-19T19:05:40.386Z,99.39
2023-01-19T19:08:10.347Z,98.85
2023-01-19T19:10:40.300Z,98.85
2023-01-19T19:13:10.710Z,98.83
2023-01-19T19:15:44.415Z,98.79
2023-01-19T19:18:16.330Z,98.62
2023-01-19T19:20:46.566Z,98.81
2023-01-19T19:23:16.229Z,99.02
2023-01-19T19:25:46.178Z,98.87
2023-01-19T19:28:15.852Z,98.86
2023-01-19T19:30:51.426Z,98.55
2023-01-19T19:33:22.623Z,98.80
2023-01-19T19:35:59.133Z,100.00
2023-01-19T19:38:29.417Z,99.60
2023-01-19T19:41:00.490Z,98.99
2023-01-19T19:43:30.474Z,100.00
2023-01-19T19:46:04.926Z,99.79
2023-01-19T19:48:37.574Z,99.62
2023-01-19T19:51:17.953Z,98.88
2023-01-19T19:53:51.399Z,98.73
2023-01-19T19:56:23.572Z,99.63
2023-01-19T19:58:54.784Z,96.43
2023-01-19T20:01:32.557Z,96.90
2023-01-19T20:04:09.016Z,99.08
2023-01-19T20:06:41.586Z,99.85
2023-01-19T20:09:14.129Z,100.00
2023-01-19T20:11:44.966Z,100.00
2023-01-19T20:14:16.883Z,100.00
2023-01-19T20:16:49.699Z,100.00
2023-01-19T20:19:19.853Z,100.00
2023-01-19T20:21:49.853Z,100.00
2023-01-19T20:24:21.895Z,100.00
2023-01-19T20:26:56.331Z,100.00
2023-01-19T20:29:26.557Z,100.00
2023-01-19T20:31:59.572Z,100.00
2023-01-19T20:34:33.371Z,100.00
2023-01-19T20:37:04.822Z,100.00
2023-01-19T20:39:36.792Z,100.00
2023-01-19T20:42:11.295Z,100.00
2023-01-19T20:44:41.299Z,100.00
2023-01-19T20:47:13.868Z,100.00
2023-01-19T20:49:43.888Z,100.00
2023-01-19T20:52:13.661Z,100.00
2023-01-19T20:54:43.397Z,99.59
2023-01-19T20:57:13.411Z,99.02
2023-01-19T20:59:43.405Z,100.00
2023-01-19T21:02:17.468Z,100.00
2023-01-19T21:04:47.440Z,99.54
2023-01-19T21:07:17.092Z,100.00
2023-01-19T21:09:46.986Z,100.00
2023-01-19T21:12:16.648Z,100.00
2023-01-19T21:14:46.543Z,100.00
2023-01-19T21:17:18.873Z,100.00
2023-01-19T21:19:48.900Z,100.00
2023-01-19T21:22:18.706Z,100.00
2023-01-19T21:24:49.550Z,100.00
2023-01-19T21:27:19.208Z,100.00
2023-01-19T21:29:50.337Z,100.00
2023-01-19T21:32:22.716Z,99.82
2023-01-19T21:34:52.672Z,100.00
2023-01-19T21:37:22.653Z,100.00
2023-01-19T21:39:52.549Z,100.00
2023-01-19T21:42:22.379Z,100.00
2023-01-19T21:44:52.357Z,100.00
2023-01-19T21:47:25.759Z,100.00
2023-01-19T21:49:55.590Z,100.00
2023-01-19T21:52:25.247Z,100.00
2023-01-19T21:54:54.858Z,100.00
2023-01-19T21:57:24.576Z,100.00
2023-01-19T21:59:54.195Z,100.00
2023-01-19T22:02:37.984Z,100.00
2023-01-19T22:05:09.411Z,100.00
2023-01-19T22:07:39.167Z,100.00
2023-01-19T22:10:11.038Z,100.00
2023-01-19T22:12:41.156Z,100.00
2023-01-19T22:15:12.545Z,100.00
2023-01-19T22:17:44.988Z,100.00
2023-01-19T22:20:15.023Z,100.00
2023-01-19T22:22:44.652Z,100.00
2023-01-19T22:25:15.210Z,100.00
2023-01-19T22:27:45.165Z,100.00
2023-01-19T22:30:14.977Z,100.00
2023-01-19T22:32:47.461Z,100.00
2023-01-19T22:35:17.168Z,100.00
2023-01-19T22:37:46.788Z,100.00
2023-01-19T22:40:16.784Z,100.00
2023-01-19T22:42:48.498Z,100.00
2023-01-19T22:45:18.176Z,100.00
2023-01-19T22:47:50.380Z,100.00
2023-01-19T22:50:20.109Z,100.00
2023-01-19T22:52:49.761Z,100.00
2023-01-19T22:55:19.390Z,100.00
2023-01-19T22:57:49.179Z,100.00
2023-01-19T23:00:20.118Z,100.00
2023-01-19T23:02:52.544Z,100.00
2023-01-19T23:05:22.181Z,100.00
2023-01-19T23:07:51.826Z,100.00
2023-01-19T23:10:21.433Z,99.54
2023-01-19T23:12:51.321Z,99.18
2023-01-19T23:15:20.938Z,100.00
2023-01-19T23:17:53.678Z,100.00
2023-01-19T23:20:23.308Z,100.00
2023-01-19T23:22:52.960Z,99.35
2023-01-19T23:25:22.588Z,98.98
2023-01-19T23:27:52.194Z,99.28
2023-01-19T23:30:22.335Z,99.19
2023-01-19T23:32:54.551Z,98.93
2023-01-19T23:35:24.204Z,99.60
2023-01-19T23:37:53.908Z,100.00
2023-01-19T23:40:24.552Z,100.00
2023-01-19T23:42:54.190Z,100.00
2023-01-19T23:45:24.354Z,100.00
2023-01-19T23:47:56.545Z,100.00
2023-01-19T23:50:26.163Z,100.00
2023-01-19T23:52:55.790Z,100.00
2023-01-19T23:55:25.391Z,100.00
2023-01-19T23:57:55.033Z,100.00
